Time;durP1;ratioP1;P1;durP2;ratioP2;P2;SDS_P1;SDS_P2;PMS_P1;PMS_P2;Temp;Humidity;BMP_temperature;BMP_pressure;BME280_temperature;BME280_humidity;BME280_pressure;Samples;Min_cycle;Max_cycle;Signal;HPM_P1;HPM_P2
2022/10/19 02:43:44;;;;;;;25.60;12.88;;;;;;;10.75;98.44;99678.03;1817947;79;27087;-44
2022/10/19 02:46:18;;;;;;;22.20;12.25;;;;;;;10.70;98.22;99675.65;1791752;80;21559;-42
2022/10/19 02:48:45;;;;;;;13.72;11.35;;;;;;;10.64;98.95;99681.23;1792942;80;21484;-41
2022/10/19 02:51:59;;;;;;;23.40;12.37;;;;;;;10.67;98.66;99682.84;1793074;80;21041;-41
2022/10/19 02:54:25;;;;;;;21.02;12.23;;;;;;;10.57;99.62;99671.94;1792962;80;21038;-41
2022/10/19 02:56:51;;;;;;;20.35;11.70;;;;;;;10.64;98.61;99666.77;1792890;80;21050;-41
2022/10/19 02:59:17;;;;;;;21.30;11.35;;;;;;;10.67;98.43;99672.31;1793058;80;21464;-39
2022/10/19 03:01:43;;;;;;;23.45;11.30;;;;;;;10.63;98.36;99661.09;1792964;80;21340;-40
2022/10/19 03:04:09;;;;;;;20.32;11.80;;;;;;;10.63;98.63;99665.05;1793041;80;21345;-43
2022/10/19 03:06:34;;;;;;;14.23;11.25;;;;;;;10.63;98.63;99665.05;1792933;80;21034;-40
2022/10/19 03:09:00;;;;;;;16.10;10.82;;;;;;;10.54;98.93;99667.66;1792924;80;21042;-41
2022/10/19 03:11:26;;;;;;;19.62;11.70;;;;;;;10.57;99.07;99664.05;1792894;80;21030;-41
2022/10/19 03:13:52;;;;;;;23.30;10.95;;;;;;;10.62;98.27;99660.70;1792976;80;21003;-43
2022/10/19 03:16:18;;;;;;;18.07;11.28;;;;;;;10.57;99.05;99654.84;1792994;80;21032;-40
2022/10/19 03:18:43;;;;;;;16.85;11.35;;;;;;;10.57;99.50;99654.84;1792982;80;21029;-41
2022/10/19 03:21:11;;;;;;;18.00;11.45;;;;;;;10.56;99.70;99658.38;1793083;80;21472;-40
2022/10/19 03:23:38;;;;;;;19.30;11.33;;;;;;;10.58;99.39;99663.09;1792938;80;21487;-39
2022/10/19 03:26:06;;;;;;;22.17;11.40;;;;;;;10.61;98.87;99659.48;1793110;80;20986;-41
2022/10/19 03:28:32;;;;;;;19.45;10.63;;;;;;;10.62;99.01;99655.44;1793009;80;20990;-41
2022/10/19 03:30:57;;;;;;;15.98;11.30;;;;;;;10.63;99.42;99662.89;1792913;80;20992;-41
2022/10/19 03:33:23;;;;;;;19.62;11.68;;;;;;;10.60;99.60;99655.98;1793029;80;21031;-42
2022/10/19 03:35:49;;;;;;;16.48;11.78;;;;;;;10.63;99.41;99661.09;1793032;80;21557;-40
2022/10/19 03:38:15;;;;;;;25.43;11.15;;;;;;;10.65;99.28;99653.98;1792908;80;20986;-41
2022/10/19 03:40:41;;;;;;;19.07;11.45;;;;;;;10.62;99.78;99646.70;1792863;80;21029;-40
2022/10/19 03:43:07;;;;;;;19.90;11.90;;;;;;;10.66;99.68;99652.19;1777761;80;21015;-42
2022/10/19 03:45:33;;;;;;;18.60;12.63;;;;;;;10.66;99.87;99645.62;1772226;81;20972;-40
2022/10/19 03:47:58;;;;;;;19.05;12.47;;;;;;;10.66;100.00;99645.62;1772230;81;21003;-42
2022/10/19 03:50:24;;;;;;;23.30;12.95;;;;;;;10.70;100.00;99645.88;1772215;81;20976;-41
2022/10/19 03:52:50;;;;;;;24.32;13.88;;;;;;;10.70;100.00;99647.19;1772087;81;20976;-43
2022/10/19 03:55:16;;;;;;;19.25;12.95;;;;;;;10.71;100.00;99651.06;1771647;81;20956;-44
2022/10/19 03:57:42;;;;;;;24.47;13.43;;;;;;;10.71;100.00;99640.55;1771698;81;20996;-42
2022/10/19 04:00:10;;;;;;;23.05;13.08;;;;;;;10.73;100.00;99641.31;1771777;81;20968;-40
2022/10/19 04:02:36;;;;;;;24.05;13.85;;;;;;;10.75;100.00;99639.45;1771690;81;20960;-42
2022/10/19 04:05:02;;;;;;;26.77;13.70;;;;;;;10.73;100.00;99634.73;1771710;81;21047;-40
2022/10/19 04:07:27;;;;;;;24.20;14.18;;;;;;;10.73;100.00;99642.63;1771725;81;20968;-40
2022/10/19 04:09:53;;;;;;;20.55;13.48;;;;;;;10.79;99.51;99635.33;1771660;81;20996;-39
2022/10/19 04:12:19;;;;;;;18.48;13.28;;;;;;;10.74;100.00;99646.94;1771757;81;21000;-43
2022/10/19 04:14:44;;;;;;;19.35;12.68;;;;;;;10.72;99.98;99646.17;1771811;81;21035;-40
2022/10/19 04:17:10;;;;;;;19.17;13.50;;;;;;;10.74;99.86;99657.46;1771805;81;21579;-42
2022/10/19 04:19:36;;;;;;;27.42;13.18;;;;;;;10.75;99.86;99644.71;1771742;81;20996;-41
2022/10/19 04:22:02;;;;;;;23.55;14.15;;;;;;;10.78;99.46;99650.27;1771680;81;20988;-42
2022/10/19 04:24:28;;;;;;;25.70;12.98;;;;;;;10.79;99.73;99649.36;1771771;81;21030;-43
2022/10/19 04:26:55;;;;;;;16.67;11.75;;;;;;;10.82;99.25;99642.60;1771696;81;20984;-44
2022/10/19 04:29:23;;;;;;;19.65;13.22;;;;;;;10.76;99.38;99648.19;1771826;81;20956;-40
2022/10/19 04:31:51;;;;;;;19.32;12.33;;;;;;;10.78;99.19;99647.64;1771727;80;20984;-42
2022/10/19 04:34:17;;;;;;;16.70;11.55;;;;;;;10.73;99.67;99649.20;1771877;81;21478;-40
2022/10/19 04:36:43;;;;;;;24.67;12.53;;;;;;;10.76;99.38;99640.30;1771775;81;21003;-43
2022/10/19 04:39:10;;;;;;;19.70;13.55;;;;;;;10.77;99.37;99639.38;1771693;80;20980;-44
2022/10/19 04:41:37;;;;;;;19.42;12.88;;;;;;;10.74;99.84;99638.20;1771783;81;21043;-42
2022/10/19 04:44:07;;;;;;;20.50;12.88;;;;;;;10.74;99.88;99629.84;1792822;80;20975;-43
2022/10/19 04:46:34;;;;;;;28.83;13.88;;;;;;;10.72;99.99;99629.07;1792623;80;20998;-41
2022/10/19 04:49:00;;;;;;;18.40;12.10;;;;;;;10.73;99.68;99625.53;1792604;80;21038;-43
2022/10/19 04:51:26;;;;;;;18.55;12.80;;;;;;;10.79;99.16;99630.94;1792592;80;21436;-42
2022/10/19 04:53:54;;;;;;;21.12;13.25;;;;;;;10.68;99.46;99626.22;1792689;80;21530;-43
2022/10/19 04:56:25;;;;;;;25.27;12.90;;;;;;;10.70;99.23;99619.57;1792576;80;20978;-43
2022/10/19 04:58:57;;;;;;;26.20;14.55;;;;;;;10.70;99.25;99625.67;1792737;80;21021;-39
2022/10/19 05:01:25;;;;;;;23.32;13.22;;;;;;;10.71;98.75;99618.19;1792621;80;20994;-43
2022/10/19 05:03:56;;;;;;;25.15;14.63;;;;;;;10.65;98.92;99614.53;1792505;80;21479;-40
2022/10/19 05:06:23;;;;;;;30.17;14.00;;;;;;;10.66;99.33;99621.50;1792540;80;21039;-43
2022/10/19 05:08:49;;;;;;;20.73;12.87;;;;;;;10.67;99.00;99620.56;1792807;80;20986;-43
2022/10/19 05:11:16;;;;;;;22.60;14.93;;;;;;;10.67;99.03;99615.30;1792613;80;20971;-39
2022/10/19 05:13:43;;;;;;;26.00;13.48;;;;;;;10.67;98.94;99613.98;1792754;80;20951;-44
2022/10/19 05:16:13;;;;;;;25.63;14.30;;;;;;;10.69;98.72;99614.75;1792849;80;20998;-41
2022/10/19 05:18:39;;;;;;;19.10;12.43;;;;;;;10.68;98.39;99611.75;1792546;80;20999;-43
2022/10/19 05:21:11;;;;;;;19.85;12.73;;;;;;;10.65;98.41;99607.95;1792601;80;21586;-42
2022/10/19 05:23:38;;;;;;;22.85;12.30;;;;;;;10.64;98.88;99602.33;1792656;80;21464;-40
2022/10/19 05:26:12;;;;;;;22.35;13.50;;;;;;;10.63;99.19;99609.81;1792656;80;21002;-43
2022/10/19 05:28:38;;;;;;;24.82;13.40;;;;;;;10.63;98.87;99605.88;1791870;80;20959;-39
2022/10/19 05:31:12;;;;;;;19.62;13.08;;;;;;;10.63;98.93;99613.76;1792460;80;21586;-43
2022/10/19 05:33:39;;;;;;;21.90;13.32;;;;;;;10.65;98.68;99610.58;1790439;80;20982;-44
2022/10/19 05:36:21;;;;;;;19.77;12.85;;;;;;;10.62;98.83;99612.05;1792619;80;20967;-43
2022/10/19 05:38:49;;;;;;;22.15;13.18;;;;;;;10.63;98.88;99612.92;1792645;80;21030;-43
2022/10/19 05:41:16;;;;;;;24.23;12.70;;;;;;;10.58;99.27;99613.13;1792473;80;20997;-43
2022/10/19 05:43:42;;;;;;;23.80;13.18;;;;;;;10.62;98.84;99612.05;1782224;80;21047;-43
2022/10/19 05:46:12;;;;;;;21.12;13.03;;;;;;;10.63;98.93;99615.08;1778765;80;21456;-43
2022/10/19 05:48:38;;;;;;;23.52;13.48;;;;;;;10.64;99.39;99613.28;1778763;80;20980;-44
2022/10/19 05:51:06;;;;;;;22.48;13.32;;;;;;;10.67;99.37;99620.56;1778728;81;20971;-41
2022/10/19 05:53:33;;;;;;;23.77;11.70;;;;;;;10.65;99.34;99623.73;1765520;81;20968;-46
2022/10/19 05:55:59;;;;;;;22.32;12.68;;;;;;;10.66;98.90;99616.69;1748040;82;21426;-43
2022/10/19 05:58:25;;;;;;;26.48;13.03;;;;;;;10.65;98.44;99613.21;1748044;82;21490;-45
2022/10/19 06:00:57;;;;;;;30.68;13.38;;;;;;;10.67;98.43;99619.24;1747983;82;21001;-41
2022/10/19 06:03:24;;;;;;;19.87;11.68;;;;;;;10.67;98.65;99615.30;1747981;82;21474;-44
2022/10/19 06:05:51;;;;;;;20.55;12.33;;;;;;;10.71;98.32;99620.81;1748003;82;21038;-41
2022/10/19 06:08:18;;;;;;;;;;;;;;;10.72;98.36;99618.55;1750475;82;20993;-41
2022/10/19 06:10:45;;;;;;;28.42;12.60;;;;;;;10.75;98.31;99620.16;1748049;82;20107;-42
2022/10/19 06:13:12;;;;;;;21.70;11.25;;;;;;;10.78;97.94;99625.75;1747946;82;21036;-45
2022/10/19 06:15:39;;;;;;;18.82;10.82;;;;;;;10.78;97.59;99617.38;1747916;82;21422;-44
2022/10/19 06:18:11;;;;;;;19.85;10.53;;;;;;;10.75;97.74;99623.66;1748138;82;20981;-45
2022/10/19 06:20:39;;;;;;;25.62;10.00;;;;;;;10.76;97.35;99618.77;1747903;82;20989;-41
2022/10/19 06:23:06;;;;;;;22.22;10.40;;;;;;;10.78;96.89;99612.13;1725184;82;21052;-45
2022/10/19 06:25:34;;;;;;;19.73;10.13;;;;;;;10.80;96.49;99633.09;1748050;82;20993;-44
2022/10/19 06:28:00;;;;;;;;;;;;;;;10.80;95.80;99622.58;1750611;82;21469;-44
2022/10/19 06:30:25;;;;;;;18.52;9.45;;;;;;;10.81;95.93;99630.87;1747809;82;20114;-41
2022/10/19 06:32:51;;;;;;;16.82;9.05;;;;;;;10.85;95.93;99634.56;1747950;82;21458;-44
2022/10/19 06:35:17;;;;;;;17.42;8.95;;;;;;;10.84;95.86;99630.69;1747964;82;20977;-42
2022/10/19 06:37:43;;;;;;;17.25;8.98;;;;;;;10.78;95.58;99632.33;1747717;82;21545;-57
2022/10/19 06:40:10;;;;;;;20.37;8.68;;;;;;;10.84;95.62;99634.64;1747890;82;20981;-43
2022/10/19 06:42:39;;;;;;;16.00;8.15;;;;;;;10.85;95.46;99634.56;1747792;82;21482;-44
2022/10/19 06:45:10;;;;;;;16.60;8.30;;;;;;;10.85;95.54;99634.56;1746876;82;21037;-44
2022/10/19 06:47:36;;;;;;;16.10;8.28;;;;;;;10.85;95.50;99643.77;1747732;82;21012;-42
2022/10/19 06:50:04;;;;;;;16.90;9.13;;;;;;;10.86;95.52;99642.86;1747730;82;21164;-44
2022/10/19 06:52:30;;;;;;;15.85;8.15;;;;;;;10.90;95.52;99634.34;1747737;82;21020;-44
2022/10/19 06:54:55;;;;;;;20.80;8.03;;;;;;;10.91;95.24;99631.64;1747809;82;21064;-44
2022/10/19 06:57:21;;;;;;;11.33;7.58;;;;;;;10.89;94.96;99637.89;1747785;82;20984;-43
2022/10/19 06:59:47;;;;;;;15.25;7.67;;;;;;;10.93;94.87;99632.84;1747646;82;21004;-44
2022/10/19 07:02:14;;;;;;;18.05;8.40;;;;;;;10.92;94.88;99637.73;1747802;82;21172;-42
2022/10/19 07:04:39;;;;;;;12.70;8.40;;;;;;;10.88;94.94;99636.20;1747867;82;21463;-45
2022/10/19 07:07:06;;;;;;;18.55;7.58;;;;;;;10.90;95.23;99633.87;1746908;82;20968;-42
2022/10/19 07:09:32;;;;;;;18.95;7.80;;;;;;;10.88;95.30;99631.78;1747549;82;20975;-42
2022/10/19 07:11:58;;;;;;;12.75;6.95;;;;;;;11.04;94.89;99642.37;1747433;82;21003;-44
2022/10/19 07:14:24;;;;;;;12.05;6.60;;;;;;;11.05;94.60;99651.12;1747298;82;21430;-44
2022/10/19 07:16:51;;;;;;;17.60;7.53;;;;;;;11.04;94.42;99654.22;1747390;82;21003;-45
2022/10/19 07:19:17;;;;;;;13.95;7.62;;;;;;;11.05;94.34;99665.59;1747584;82;21022;-41
2022/10/19 07:21:43;;;;;;;13.62;7.37;;;;;;;11.04;94.07;99659.48;1747190;82;21034;-44
2022/10/19 07:24:09;;;;;;;16.80;7.10;;;;;;;11.06;93.97;99655.44;1747468;82;21119;-40
2022/10/19 07:26:35;;;;;;;17.62;8.18;;;;;;;11.04;93.73;99666.06;1747615;82;21015;-43
2022/10/19 07:29:02;;;;;;;13.80;7.40;;;;;;;10.97;94.06;99662.05;1747459;82;21018;-42
2022/10/19 07:31:29;;;;;;;13.48;7.65;;;;;;;10.97;94.28;99672.57;1751416;82;21046;-44
2022/10/19 07:33:58;;;;;;;14.15;6.53;;;;;;;10.95;94.00;99669.14;1747854;82;21046;-41
2022/10/19 07:36:26;;;;;;;15.18;6.70;;;;;;;11.04;93.86;99670.45;1747480;82;21007;-43
2022/10/19 07:38:52;;;;;;;14.75;6.78;;;;;;;11.07;93.81;99672.94;1746767;81;21429;-41
2022/10/19 07:41:21;;;;;;;11.53;6.05;;;;;;;11.11;93.40;99667.90;1746767;81;21510;-40
2022/10/19 07:43:49;;;;;;;14.95;6.22;;;;;;;11.14;93.23;99673.02;1751574;81;20987;-42
2022/10/19 07:46:22;;;;;;;9.08;5.78;;;;;;;11.17;92.54;99671.99;1757820;81;21496;-46
2022/10/19 07:48:48;;;;;;;11.18;5.35;;;;;;;11.21;92.65;99670.92;1749082;81;21034;-43
2022/10/19 07:51:17;;;;;;;14.98;5.33;;;;;;;11.23;91.81;99667.27;1753153;81;20963;-45
2022/10/19 07:53:43;;;;;;;13.00;4.90;;;;;;;11.30;91.72;99669.12;1744956;81;20956;-41
2022/10/19 07:56:14;;;;;;;20.77;6.47;;;;;;;11.26;91.05;99675.46;1752231;81;21464;-43
2022/10/19 07:58:41;;;;;;;13.83;4.85;;;;;;;11.32;90.94;99676.48;1751597;81;20947;-40
2022/10/19 08:01:15;;;;;;;11.38;4.78;;;;;;;11.32;90.21;99680.42;1754625;81;21001;-42
2022/10/19 08:03:41;;;;;;;17.20;4.87;;;;;;;11.40;89.72;99680.02;1739241;82;21028;-42
2022/10/19 08:06:11;;;;;;;15.35;4.58;;;;;;;11.44;89.71;99677.16;1740668;82;21021;-43
2022/10/19 08:08:38;;;;;;;12.85;4.65;;;;;;;11.46;89.48;99689.77;1742877;81;21013;-44
2022/10/19 08:11:07;;;;;;;19.07;5.08;;;;;;;11.54;89.51;99672.24;1751170;81;20954;-42
2022/10/19 08:13:33;;;;;;;10.25;4.28;;;;;;;11.67;88.56;99661.90;1754306;81;20936;-43
2022/10/19 08:15:59;;;;;;;9.53;3.92;;;;;;;11.71;88.28;99677.47;1770019;81;20956;-43
2022/10/19 08:18:25;;;;;;;12.28;4.10;;;;;;;11.69;86.85;99667.94;1750564;81;21025;-43
2022/10/19 08:20:51;;;;;;;10.88;3.75;;;;;;;11.62;86.81;99664.77;1750288;81;20945;-45
2022/10/19 08:23:17;;;;;;;8.65;3.92;;;;;;;11.69;87.11;99660.03;1771060;81;20992;-44
2022/10/19 08:25:43;;;;;;;9.23;3.25;;;;;;;11.76;86.55;99669.30;1771282;81;20998;-42
2022/10/19 08:28:08;;;;;;;18.73;3.55;;;;;;;11.88;86.81;99663.84;1771303;81;20976;-41
2022/10/19 08:30:35;;;;;;;8.30;3.52;;;;;;;11.94;86.45;99674.08;1771388;81;21020;-46
2022/10/19 08:33:04;;;;;;;8.53;4.00;;;;;;;11.94;85.63;99666.17;1771758;81;21017;-46
2022/10/19 08:35:30;;;;;;;7.78;2.95;;;;;;;11.96;85.46;99673.52;1771378;81;20991;-45
2022/10/19 08:37:57;;;;;;;13.75;3.27;;;;;;;11.97;85.28;99671.73;1771469;81;20967;-44
2022/10/19 08:40:27;;;;;;;10.75;2.62;;;;;;;12.03;85.50;99683.27;1770636;81;21473;-44
2022/10/19 08:43:07;;;;;;;7.85;2.87;;;;;;;11.88;84.70;99683.14;1743128;81;21025;-42
2022/10/19 08:45:49;;;;;;;9.13;2.95;;;;;;;11.88;84.39;99671.28;1753560;82;21011;-44
2022/10/19 08:48:35;;;;;;;6.30;2.95;;;;;;;11.87;84.40;99677.95;1733004;80;21480;-44
2022/10/19 08:51:02;;;;;;;9.98;2.98;;;;;;;11.78;84.43;99675.81;1759768;80;21453;-42
2022/10/19 08:53:58;;;;;;;10.50;3.25;;;;;;;11.76;85.08;99678.53;1761326;81;21492;-45
2022/10/19 08:56:32;;;;;;;10.18;2.35;;;;;;;11.78;84.62;99688.98;1758502;80;21017;-41
2022/10/19 08:59:26;;;;;;;7.67;2.67;;;;;;;11.79;84.58;99685.41;1755449;82;21006;-46
2022/10/19 09:02:18;;;;;;;11.93;2.98;;;;;;;11.82;84.65;99678.66;1758602;80;20996;-43
2022/10/19 09:04:49;;;;;;;11.63;3.15;;;;;;;11.76;84.64;99679.00;1756563;80;20944;-44
2022/10/19 09:07:27;;;;;;;10.65;2.85;;;;;;;11.72;85.15;99675.68;1755734;81;21327;-39
2022/10/19 09:10:03;;;;;;;6.90;2.72;;;;;;;11.63;85.72;99681.45;1755797;81;20959;-43
2022/10/19 09:12:46;;;;;;;13.98;2.90;;;;;;;11.65;85.50;99683.05;1756132;80;20999;-43
2022/10/19 09:15:19;;;;;;;9.93;2.58;;;;;;;11.62;85.59;99686.31;1759118;80;20933;-41
2022/10/19 09:17:45;;;;;;;6.37;2.33;;;;;;;11.62;84.94;99681.89;1758374;80;20985;-46
2022/10/19 09:20:38;;;;;;;10.20;3.00;;;;;;;11.70;85.06;99680.19;1760107;80;20971;-43
2022/10/19 09:23:21;;;;;;;10.13;2.37;;;;;;;11.71;85.05;99673.97;1763433;80;21453;-43
2022/10/19 09:25:50;;;;;;;8.03;2.17;;;;;;;11.68;84.79;99692.12;1755674;81;20964;-44
2022/10/19 09:28:36;;;;;;;8.78;2.77;;;;;;;11.56;86.53;99694.08;1757428;81;21039;-37
2022/10/19 09:31:02;;;;;;;5.30;2.20;;;;;;;11.44;88.48;99702.63;1762195;80;20959;-43
2022/10/19 09:33:33;;;;;;;7.55;2.47;;;;;;;11.37;88.86;99708.69;1777031;80;20952;-41
2022/10/19 09:36:02;;;;;;;6.95;2.45;;;;;;;11.22;91.50;99705.52;1762591;80;20924;-43
2022/10/19 09:38:28;;;;;;;2.87;1.80;;;;;;;11.16;92.76;99708.00;1769408;80;20973;-44
2022/10/19 09:40:57;;;;;;;6.55;2.02;;;;;;;11.17;91.53;99707.53;1755528;82;20964;-43
2022/10/19 09:43:25;;;;;;;6.62;2.45;;;;;;;11.19;92.65;99707.86;1753831;81;21506;-44
2022/10/19 09:46:14;;;;;;;12.78;2.40;;;;;;;11.13;92.88;99719.99;1750761;81;20977;-40
2022/10/19 09:48:50;;;;;;;4.97;2.20;;;;;;;11.10;92.51;99711.80;1749770;81;21023;-40
2022/10/19 09:51:17;;;;;;;4.30;1.95;;;;;;;11.12;92.61;99727.05;1751921;81;21447;-42
2022/10/19 09:53:50;;;;;;;3.85;2.52;;;;;;;11.12;92.06;99721.78;1750567;81;21005;-44
2022/10/19 09:56:22;;;;;;;2.95;1.87;;;;;;;11.19;91.48;99713.56;1759472;81;21504;-40
2022/10/19 09:58:54;;;;;;;6.25;2.00;;;;;;;11.13;92.06;99714.73;1754373;81;21476;-40
2022/10/19 10:01:38;;;;;;;8.53;1.90;;;;;;;11.12;93.22;99727.52;1748031;81;20972;-43
2022/10/19 10:04:14;;;;;;;6.55;2.50;;;;;;;11.06;92.73;99707.62;1758463;81;21492;-40
2022/10/19 10:06:42;;;;;;;6.53;2.30;;;;;;;11.05;93.10;99716.44;1753145;81;21482;-37
2022/10/19 10:09:18;;;;;;;7.42;3.00;;;;;;;11.03;93.62;99719.62;1756748;81;20960;-39
2022/10/19 10:11:48;;;;;;;9.70;2.45;;;;;;;11.07;93.62;99724.27;1749846;81;20984;-39
2022/10/19 10:14:38;;;;;;;7.58;2.67;;;;;;;11.14;92.80;99720.39;1750450;81;21490;-42
2022/10/19 10:17:16;;;;;;;4.60;2.83;;;;;;;11.13;94.30;99717.36;1750509;80;21133;-38
2022/10/19 10:20:03;;;;;;;7.12;2.65;;;;;;;11.11;94.90;99734.58;1746919;81;21480;-39
2022/10/19 10:22:34;;;;;;;4.22;2.08;;;;;;;11.18;94.02;99727.67;1745962;81;20988;-39
2022/10/19 10:25:01;;;;;;;5.95;2.50;;;;;;;11.18;94.11;99721.09;1747588;82;20980;-39
2022/10/19 10:27:38;;;;;;;4.35;2.50;;;;;;;11.12;95.60;99725.73;1746938;81;20983;-39
2022/10/19 10:30:08;;;;;;;16.82;2.40;;;;;;;11.14;96.12;99724.34;1747958;81;20945;-39
2022/10/19 10:32:41;;;;;;;3.45;1.75;;;;;;;11.17;95.42;99728.14;1747670;82;20944;-39
2022/10/19 10:35:19;;;;;;;11.35;2.47;;;;;;;11.20;95.61;99721.86;1747552;81;20973;-39
2022/10/19 10:37:46;;;;;;;;;;;;;;;11.20;94.77;99726.65;1747344;82;20999;-38
2022/10/19 10:40:29;;;;;;;6.42;2.40;;;;;;;11.18;95.76;99726.35;1747978;81;20107;-40
2022/10/19 10:43:08;;;;;;;4.35;2.45;;;;;;;11.19;94.88;99726.72;1747632;82;21536;-39
2022/10/19 10:45:39;;;;;;;5.42;2.22;;;;;;;11.25;94.55;99718.05;1726048;82;21011;-37
2022/10/19 10:48:27;;;;;;;4.20;1.90;;;;;;;11.37;94.44;99726.25;1741183;82;20976;-37
2022/10/19 10:50:54;;;;;;;3.33;1.90;;;;;;;11.40;93.84;99733.52;1743874;82;21425;-37
2022/10/19 10:53:39;;;;;;;4.47;2.00;;;;;;;11.23;95.66;99723.03;1753322;82;20988;-38
2022/10/19 10:56:22;;;;;;;2.47;1.67;;;;;;;11.30;94.63;99718.67;1746024;82;21148;-40
2022/10/19 10:59:01;;;;;;;3.08;1.42;;;;;;;11.39;93.93;99722.62;1744478;82;20980;-38
2022/10/19 11:01:47;;;;;;;2.45;1.10;;;;;;;11.32;92.60;99722.55;1753184;82;21535;-40
2022/10/19 11:04:21;;;;;;;1.85;1.57;;;;;;;11.37;92.56;99729.75;1745297;82;20953;-38
2022/10/19 11:07:01;;;;;;;1.87;1.30;;;;;;;11.32;93.02;99725.19;1744774;82;20975;-39
2022/10/19 11:09:37;;;;;;;5.45;2.58;;;;;;;11.38;93.00;99720.91;1733585;82;21023;-40
2022/10/19 11:12:08;;;;;;;5.90;2.25;;;;;;;11.43;93.35;99730.74;1743390;82;20983;-37
2022/10/19 11:14:48;;;;;;;6.35;3.70;;;;;;;11.45;93.16;99725.41;1735920;82;21543;-37
2022/10/19 11:17:24;;;;;;;3.55;3.05;;;;;;;11.37;93.27;99724.49;1754015;82;20956;-40
2022/10/19 11:19:50;;;;;;;8.28;3.37;;;;;;;11.26;94.11;99731.63;1753313;81;21437;-37
2022/10/19 11:22:49;;;;;;;5.30;2.67;;;;;;;11.21;94.11;99719.63;1756507;81;20944;-38
2022/10/19 11:25:29;;;;;;;5.85;3.42;;;;;;;11.14;94.42;99729.13;1755979;81;20968;-40
2022/10/19 11:28:19;;;;;;;3.70;1.90;;;;;;;11.09;95.25;99721.92;1760078;81;21453;-40
2022/10/19 11:31:05;;;;;;;8.35;2.00;;;;;;;11.09;94.71;99723.72;1750057;81;20991;-38
2022/10/19 11:34:02;;;;;;;3.10;1.80;;;;;;;10.96;96.26;99726.12;1747891;81;20947;-39
2022/10/19 11:36:59;;;;;;;2.20;1.40;;;;;;;11.02;96.22;99728.91;1748898;81;20979;-41
2022/10/19 11:40:01;;;;;;;3.17;2.02;;;;;;;11.20;96.50;99721.39;1755317;81;20968;-40
2022/10/19 11:43:01;;;;;;;4.25;2.62;;;;;;;11.35;95.87;99727.67;1756197;81;20965;-40
2022/10/19 11:46:01;;;;;;;4.42;2.10;;;;;;;11.36;95.81;99723.25;1769258;80;21004;-41
2022/10/19 11:48:47;;;;;;;3.10;1.92;;;;;;;11.36;95.25;99725.88;1756754;81;20965;-40
2022/10/19 11:51:32;;;;;;;9.20;1.90;;;;;;;11.37;95.75;99720.98;1763544;80;20952;-39
2022/10/19 11:54:06;;;;;;;4.05;1.92;;;;;;;11.41;95.23;99729.14;1688917;81;20964;-40
2022/10/19 11:56:50;;;;;;;3.08;1.80;;;;;;;11.37;95.14;99725.81;1749689;81;20972;-41
2022/10/19 11:59:51;;;;;;;2.75;2.30;;;;;;;11.36;95.65;99717.98;1750782;81;21431;-39
2022/10/19 12:02:28;;;;;;;4.08;1.87;;;;;;;11.34;95.54;99722.01;1755391;81;21411;-41
2022/10/19 12:05:02;;;;;;;6.08;1.98;;;;;;;11.33;96.13;99717.66;1753743;80;21116;-41
2022/10/19 12:07:56;;;;;;;4.50;2.00;;;;;;;11.27;96.32;99711.41;1758469;81;21437;-39
2022/10/19 12:10:33;;;;;;;9.23;3.62;;;;;;;11.37;96.12;99724.49;1751768;81;20936;-41
2022/10/19 12:13:06;;;;;;;6.33;3.17;;;;;;;11.35;95.29;99725.04;1761900;81;20964;-39
2022/10/19 12:15:43;;;;;;;2.75;1.90;;;;;;;11.29;95.01;99721.39;1755111;81;20975;-39
2022/10/19 12:18:37;;;;;;;5.10;3.70;;;;;;;11.34;94.97;99724.64;1756629;81;21409;-39
2022/10/19 12:21:20;;;;;;;8.63;2.80;;;;;;;11.36;94.55;99725.88;1756338;81;20967;-40
2022/10/19 12:23:47;;;;;;;4.28;2.55;;;;;;;11.37;94.24;99719.66;1751764;81;21473;-41
2022/10/19 12:26:17;;;;;;;9.75;3.70;;;;;;;11.52;94.31;99719.73;1750915;81;20980;-41
2022/10/19 12:28:59;;;;;;;5.87;2.30;;;;;;;11.76;93.68;99729.91;1755424;80;20948;-41
2022/10/19 12:31:26;;;;;;;8.73;2.40;;;;;;;12.01;92.75;99716.30;1735821;81;20980;-41
2022/10/19 12:34:27;;;;;;;;;;;;;;;12.63;92.32;99713.72;1754135;81;20967;-39
2022/10/19 12:36:59;;;;;;;2.27;1.55;;;;;;;13.65;89.26;99708.25;1753379;81;20415;-41
2022/10/19 12:39:50;;;;;;;3.87;1.70;;;;;;;15.03;84.96;99711.80;1748468;80;21873;-38
2022/10/19 12:42:50;;;;;;;6.42;1.77;;;;;;;16.81;80.27;99701.88;1752653;81;21110;-38
2022/10/19 12:45:35;;;;;;;2.85;1.87;;;;;;;18.52;76.67;99702.37;1753989;81;21518;-36
2022/10/19 12:48:17;;;;;;;2.05;1.20;;;;;;;19.55;72.40;99709.30;1748823;81;21010;-36
2022/10/19 12:50:55;;;;;;;4.10;1.35;;;;;;;19.63;67.34;99715.77;1753173;81;21030;-40
2022/10/19 12:53:36;;;;;;;3.30;1.27;;;;;;;19.37;67.74;99706.39;1743889;81;21016;-40
2022/10/19 12:56:10;;;;;;;3.35;1.32;;;;;;;20.30;63.37;99709.02;1750685;81;21014;-39
2022/10/19 12:58:44;;;;;;;1.80;1.30;;;;;;;21.33;61.71;99696.98;1748950;81;20992;-40
2022/10/19 13:01:25;;;;;;;2.92;1.62;;;;;;;20.74;55.70;99710.90;1753255;81;20975;-39
2022/10/19 13:04:08;;;;;;;1.72;1.02;;;;;;;19.32;60.04;99719.76;1747119;81;21003;-40
2022/10/19 13:06:38;;;;;;;2.00;1.35;;;;;;;18.38;58.70;99726.14;1749105;81;20968;-41
2022/10/19 13:09:08;;;;;;;4.40;1.30;;;;;;;16.86;57.78;99734.74;1746765;81;20991;-42
2022/10/19 13:11:37;;;;;;;1.75;1.05;;;;;;;15.95;58.03;99746.56;1748117;81;20940;-42
2022/10/19 13:14:47;;;;;;;3.12;1.40;;;;;;;15.01;59.81;99738.84;1745377;81;20985;-41
2022/10/19 13:17:40;;;;;;;1.17;1.07;;;;;;;14.58;61.11;99743.36;1753863;82;21003;-41
2022/10/19 13:20:20;;;;;;;1.80;0.85;;;;;;;14.42;61.52;99739.97;1745361;81;20969;-42
2022/10/19 13:23:02;;;;;;;1.87;1.10;;;;;;;13.86;63.00;99744.39;1749589;81;21424;-42
2022/10/19 13:25:35;;;;;;;1.77;1.20;;;;;;;13.46;63.59;99741.52;1753933;82;21017;-42
2022/10/19 13:28:13;;;;;;;3.90;1.22;;;;;;;12.97;64.92;99749.19;1756881;81;20952;-42
2022/10/19 13:30:45;;;;;;;2.70;1.40;;;;;;;12.50;65.93;99762.85;1758458;81;21019;-46
2022/10/19 13:47:12;;;;;;;5.87;1.70;;;;;;;12.11;70.92;99756.17;1781774;80;22769;-46
2022/10/19 13:49:55;;;;;;;4.25;1.32;;;;;;;12.00;71.72;99755.91;1773041;80;20990;-40
2022/10/19 13:52:42;;;;;;;3.80;2.02;;;;;;;11.71;72.66;99759.14;1737777;82;20967;-43
2022/10/19 13:55:45;;;;;;;2.30;1.57;;;;;;;11.83;72.35;99758.95;1758747;81;20983;-41
2022/10/19 13:58:22;;;;;;;7.95;2.02;;;;;;;11.83;72.74;99766.02;1737698;82;21459;-44
2022/10/19 14:01:25;;;;;;;2.72;1.40;;;;;;;11.78;73.48;99774.62;1755085;81;21042;-43
2022/10/19 14:04:20;;;;;;;9.10;1.70;;;;;;;11.78;73.48;99774.62;1737494;82;21223;-43
2022/10/19 14:07:00;;;;;;;2.55;1.62;;;;;;;11.67;73.65;99770.75;1738367;81;20998;-42
2022/10/19 14:09:58;;;;;;;3.12;1.60;;;;;;;11.62;73.60;99762.70;1737700;82;21042;-43
2022/10/19 14:12:28;;;;;;;4.85;1.50;;;;;;;11.68;73.48;99767.20;1751772;81;20973;-43
2022/10/19 14:14:54;;;;;;;3.67;1.22;;;;;;;11.51;74.35;99770.72;1736687;82;21020;-41
2022/10/19 14:17:26;;;;;;;2.58;1.80;;;;;;;11.49;73.89;99767.77;1739393;82;20975;-42
2022/10/19 14:19:56;;;;;;;4.40;1.62;;;;;;;11.56;73.87;99769.62;1738490;82;21352;-42
2022/10/19 14:22:29;;;;;;;4.22;1.57;;;;;;;11.50;74.38;99766.37;1739429;82;21029;-42
2022/10/19 14:25:07;;;;;;;3.02;1.65;;;;;;;11.57;73.72;99767.36;1738706;82;20991;-43
2022/10/19 14:27:33;;;;;;;4.17;1.90;;;;;;;11.52;74.39;99764.98;1737208;82;21010;-43
2022/10/19 14:29:59;;;;;;;9.50;1.65;;;;;;;11.61;74.14;99771.08;1739428;82;20993;-44
2022/10/19 14:32:28;;;;;;;3.62;1.92;;;;;;;11.64;74.46;99772.70;1739419;82;21865;-41
2022/10/19 14:35:02;;;;;;;1.92;1.37;;;;;;;11.55;74.42;99774.05;1739394;82;21065;-43
2022/10/19 14:37:27;;;;;;;5.03;1.62;;;;;;;11.63;73.58;99773.17;1739217;82;20998;-41
2022/10/19 14:40:22;;;;;;;8.78;1.70;;;;;;;11.38;74.51;99778.84;1739453;82;21031;-41
2022/10/19 14:42:48;;;;;;;5.17;1.60;;;;;;;11.45;74.05;99784.19;1738952;82;21058;-46
2022/10/19 14:45:21;;;;;;;6.22;1.60;;;;;;;11.35;74.62;99777.70;1735451;82;21063;-41
2022/10/19 14:48:05;;;;;;;2.05;1.70;;;;;;;11.34;74.06;99782.09;1726069;83;21062;-40
2022/10/19 14:50:48;;;;;;;3.37;2.10;;;;;;;11.21;74.29;99790.23;1756111;82;21100;-43